sensor_id;sensor_type;location;lat;lon;timestamp;temperature;humidity
14095;DHT22;18096;48.142;16.290;2023-12-28T00:00:42;4.90;99.90
14095;DHT22;18096;48.142;16.290;2023-12-28T00:03:08;4.80;99.90
14095;DHT22;18096;48.142;16.290;2023-12-28T00:05:33;4.80;99.90
14095;DHT22;18096;48.142;16.290;2023-12-28T00:07:59;4.80;99.90
14095;DHT22;18096;48.142;16.290;2023-12-28T00:10:26;4.80;99.90
14095;DHT22;18096;48.142;16.290;2023-12-28T00:12:51;4.80;99.90
14095;DHT22;18096;48.142;16.290;2023-12-28T00:15:17;4.80;99.90
14095;DHT22;18096;48.142;16.290;2023-12-28T00:17:42;4.70;99.90
14095;DHT22;18096;48.142;16.290;2023-12-28T00:20:09;4.70;99.90
14095;DHT22;18096;48.142;16.290;2023-12-28T00:22:35;4.60;99.90
14095;DHT22;18096;48.142;16.290;2023-12-28T00:25:06;4.60;99.90
14095;DHT22;18096;48.142;16.290;2023-12-28T00:27:31;4.60;99.90
14095;DHT22;18096;48.142;16.290;2023-12-28T00:29:59;4.60;99.90
14095;DHT22;18096;48.142;16.290;2023-12-28T00:32:25;4.60;99.90
14095;DHT22;18096;48.142;16.290;2023-12-28T00:34:51;4.50;99.90
14095;DHT22;18096;48.142;16.290;2023-12-28T00:37:16;4.50;99.90
14095;DHT22;18096;48.142;16.290;2023-12-28T00:39:42;4.50;99.90
14095;DHT22;18096;48.142;16.290;2023-12-28T00:42:08;4.50;99.90
14095;DHT22;18096;48.142;16.290;2023-12-28T00:44:34;4.50;99.90
14095;DHT22;18096;48.142;16.290;2023-12-28T00:46:59;4.50;99.90
14095;DHT22;18096;48.142;16.290;2023-12-28T00:49:25;4.50;99.90
14095;DHT22;18096;48.142;16.290;2023-12-28T00:51:50;4.50;99.90
14095;DHT22;18096;48.142;16.290;2023-12-28T00:54:16;4.40;99.90
14095;DHT22;18096;48.142;16.290;2023-12-28T00:56:42;4.50;99.90
14095;DHT22;18096;48.142;16.290;2023-12-28T00:59:07;4.40;99.90
14095;DHT22;18096;48.142;16.290;2023-12-28T01:01:33;4.40;99.90
14095;DHT22;18096;48.142;16.290;2023-12-28T01:03:58;4.30;99.90
14095;DHT22;18096;48.142;16.290;2023-12-28T01:06:24;4.30;99.90
14095;DHT22;18096;48.142;16.290;2023-12-28T01:08:54;4.30;99.90
14095;DHT22;18096;48.142;16.290;2023-12-28T01:11:20;4.30;99.90
14095;DHT22;18096;48.142;16.290;2023-12-28T01:13:46;4.30;99.90
14095;DHT22;18096;48.142;16.290;2023-12-28T01:16:14;4.20;99.90
14095;DHT22;18096;48.142;16.290;2023-12-28T01:18:40;4.20;99.90
14095;DHT22;18096;48.142;16.290;2023-12-28T01:21:06;4.20;99.90
14095;DHT22;18096;48.142;16.290;2023-12-28T01:23:32;4.20;99.90
14095;DHT22;18096;48.142;16.290;2023-12-28T01:25:58;4.20;99.90
14095;DHT22;18096;48.142;16.290;2023-12-28T01:28:24;4.20;99.90
14095;DHT22;18096;48.142;16.290;2023-12-28T01:30:50;4.30;99.90
14095;DHT22;18096;48.142;16.290;2023-12-28T01:33:15;4.20;99.90
14095;DHT22;18096;48.142;16.290;2023-12-28T01:35:41;4.20;99.90
14095;DHT22;18096;48.142;16.290;2023-12-28T01:38:07;4.20;99.90
14095;DHT22;18096;48.142;16.290;2023-12-28T01:40:33;4.30;99.90
14095;DHT22;18096;48.142;16.290;2023-12-28T01:42:59;4.30;99.90
14095;DHT22;18096;48.142;16.290;2023-12-28T01:45:24;4.30;99.90
14095;DHT22;18096;48.142;16.290;2023-12-28T01:47:51;4.30;99.90
14095;DHT22;18096;48.142;16.290;2023-12-28T01:50:18;4.40;99.90
14095;DHT22;18096;48.142;16.290;2023-12-28T01:52:44;4.40;99.90
14095;DHT22;18096;48.142;16.290;2023-12-28T01:55:10;4.50;99.90
14095;DHT22;18096;48.142;16.290;2023-12-28T01:57:36;4.50;99.90
14095;DHT22;18096;48.142;16.290;2023-12-28T02:00:03;4.40;99.90
14095;DHT22;18096;48.142;16.290;2023-12-28T02:02:30;4.50;99.90
14095;DHT22;18096;48.142;16.290;2023-12-28T02:04:56;4.50;99.90
14095;DHT22;18096;48.142;16.290;2023-12-28T02:07:24;4.50;99.90
14095;DHT22;18096;48.142;16.290;2023-12-28T02:09:50;4.60;99.90
14095;DHT22;18096;48.142;16.290;2023-12-28T02:12:16;4.60;99.90
14095;DHT22;18096;48.142;16.290;2023-12-28T02:14:42;4.70;99.90
14095;DHT22;18096;48.142;16.290;2023-12-28T02:17:15;4.70;99.90
14095;DHT22;18096;48.142;16.290;2023-12-28T02:19:50;4.70;99.90
14095;DHT22;18096;48.142;16.290;2023-12-28T02:22:16;4.70;99.90
14095;DHT22;18096;48.142;16.290;2023-12-28T02:25:03;4.70;99.90
14095;DHT22;18096;48.142;16.290;2023-12-28T02:27:29;4.80;99.90
14095;DHT22;18096;48.142;16.290;2023-12-28T02:29:55;4.70;99.90
14095;DHT22;18096;48.142;16.290;2023-12-28T02:32:28;4.80;99.90
14095;DHT22;18096;48.142;16.290;2023-12-28T02:35:02;4.80;99.90
14095;DHT22;18096;48.142;16.290;2023-12-28T02:37:29;4.80;99.90
14095;DHT22;18096;48.142;16.290;2023-12-28T02:39:56;4.80;99.90
14095;DHT22;18096;48.142;16.290;2023-12-28T02:42:22;4.80;99.90
14095;DHT22;18096;48.142;16.290;2023-12-28T02:44:48;4.80;99.90
14095;DHT22;18096;48.142;16.290;2023-12-28T02:47:13;4.90;99.90
14095;DHT22;18096;48.142;16.290;2023-12-28T02:49:39;4.90;99.90
14095;DHT22;18096;48.142;16.290;2023-12-28T02:52:05;4.90;99.90
14095;DHT22;18096;48.142;16.290;2023-12-28T02:54:30;4.90;99.90
14095;DHT22;18096;48.142;16.290;2023-12-28T02:56:56;4.90;99.90
14095;DHT22;18096;48.142;16.290;2023-12-28T02:59:21;4.90;99.90
14095;DHT22;18096;48.142;16.290;2023-12-28T03:01:47;4.90;99.90
14095;DHT22;18096;48.142;16.290;2023-12-28T03:04:13;5.00;99.90
14095;DHT22;18096;48.142;16.290;2023-12-28T03:06:38;5.00;99.90
14095;DHT22;18096;48.142;16.290;2023-12-28T03:09:06;5.00;99.90
14095;DHT22;18096;48.142;16.290;2023-12-28T03:11:31;5.10;99.90
14095;DHT22;18096;48.142;16.290;2023-12-28T03:13:57;5.00;99.90
14095;DHT22;18096;48.142;16.290;2023-12-28T03:16:23;5.10;99.90
14095;DHT22;18096;48.142;16.290;2023-12-28T03:18:48;5.10;99.90
14095;DHT22;18096;48.142;16.290;2023-12-28T03:21:14;5.10;99.90
14095;DHT22;18096;48.142;16.290;2023-12-28T03:23:39;5.10;99.90
14095;DHT22;18096;48.142;16.290;2023-12-28T03:26:05;5.10;99.90
14095;DHT22;18096;48.142;16.290;2023-12-28T03:28:30;5.10;99.90
14095;DHT22;18096;48.142;16.290;2023-12-28T03:30:56;5.20;99.90
14095;DHT22;18096;48.142;16.290;2023-12-28T03:33:23;5.20;99.90
14095;DHT22;18096;48.142;16.290;2023-12-28T03:35:49;5.20;99.90
14095;DHT22;18096;48.142;16.290;2023-12-28T03:38:16;5.20;99.90
14095;DHT22;18096;48.142;16.290;2023-12-28T03:40:41;5.20;99.90
14095;DHT22;18096;48.142;16.290;2023-12-28T03:43:07;5.20;99.90
14095;DHT22;18096;48.142;16.290;2023-12-28T03:45:33;5.20;99.90
14095;DHT22;18096;48.142;16.290;2023-12-28T03:47:59;5.20;99.90
14095;DHT22;18096;48.142;16.290;2023-12-28T03:50:24;5.10;99.90
14095;DHT22;18096;48.142;16.290;2023-12-28T03:52:50;5.10;99.90
14095;DHT22;18096;48.142;16.290;2023-12-28T03:55:15;5.10;99.90
14095;DHT22;18096;48.142;16.290;2023-12-28T03:57:41;5.10;99.90
14095;DHT22;18096;48.142;16.290;2023-12-28T04:00:08;5.10;99.90
14095;DHT22;18096;48.142;16.290;2023-12-28T04:02:33;5.10;99.90
14095;DHT22;18096;48.142;16.290;2023-12-28T04:04:59;5.10;99.90
14095;DHT22;18096;48.142;16.290;2023-12-28T04:07:25;5.10;99.90
14095;DHT22;18096;48.142;16.290;2023-12-28T04:09:51;5.10;99.90
14095;DHT22;18096;48.142;16.290;2023-12-28T04:12:16;5.10;99.90
14095;DHT22;18096;48.142;16.290;2023-12-28T04:14:42;5.10;99.90
14095;DHT22;18096;48.142;16.290;2023-12-28T04:17:07;5.00;99.90
14095;DHT22;18096;48.142;16.290;2023-12-28T04:19:33;4.90;99.90
14095;DHT22;18096;48.142;16.290;2023-12-28T04:21:59;4.90;99.90
14095;DHT22;18096;48.142;16.290;2023-12-28T04:24:24;4.90;99.90
14095;DHT22;18096;48.142;16.290;2023-12-28T04:26:50;4.90;99.90
14095;DHT22;18096;48.142;16.290;2023-12-28T04:29:15;4.90;99.90
14095;DHT22;18096;48.142;16.290;2023-12-28T04:31:41;4.90;99.90
14095;DHT22;18096;48.142;16.290;2023-12-28T04:34:07;4.90;99.90
14095;DHT22;18096;48.142;16.290;2023-12-28T04:36:40;4.90;99.90
14095;DHT22;18096;48.142;16.290;2023-12-28T04:39:06;4.90;99.90
14095;DHT22;18096;48.142;16.290;2023-12-28T04:41:31;4.80;99.90
14095;DHT22;18096;48.142;16.290;2023-12-28T04:43:57;4.80;99.90
14095;DHT22;18096;48.142;16.290;2023-12-28T04:46:23;4.80;99.90
14095;DHT22;18096;48.142;16.290;2023-12-28T04:48:48;4.80;99.90
14095;DHT22;18096;48.142;16.290;2023-12-28T04:51:14;4.70;99.90
14095;DHT22;18096;48.142;16.290;2023-12-28T04:53:39;4.80;99.90
14095;DHT22;18096;48.142;16.290;2023-12-28T04:56:06;4.90;99.90
14095;DHT22;18096;48.142;16.290;2023-12-28T04:58:31;4.80;99.90
14095;DHT22;18096;48.142;16.290;2023-12-28T05:00:57;4.80;99.90
14095;DHT22;18096;48.142;16.290;2023-12-28T05:03:22;4.80;99.90
14095;DHT22;18096;48.142;16.290;2023-12-28T05:05:48;4.80;99.90
14095;DHT22;18096;48.142;16.290;2023-12-28T05:08:14;4.70;99.90
14095;DHT22;18096;48.142;16.290;2023-12-28T05:10:39;4.70;99.90
14095;DHT22;18096;48.142;16.290;2023-12-28T05:13:05;4.70;99.90
14095;DHT22;18096;48.142;16.290;2023-12-28T05:15:30;4.70;99.90
14095;DHT22;18096;48.142;16.290;2023-12-28T05:17:56;4.70;99.90
14095;DHT22;18096;48.142;16.290;2023-12-28T05:20:22;4.70;99.90
14095;DHT22;18096;48.142;16.290;2023-12-28T05:22:47;4.70;99.90
14095;DHT22;18096;48.142;16.290;2023-12-28T05:25:14;4.70;99.90
14095;DHT22;18096;48.142;16.290;2023-12-28T05:27:39;4.70;99.90
14095;DHT22;18096;48.142;16.290;2023-12-28T05:30:06;4.70;99.90
14095;DHT22;18096;48.142;16.290;2023-12-28T05:32:31;4.70;99.90
14095;DHT22;18096;48.142;16.290;2023-12-28T05:34:57;4.70;99.90
14095;DHT22;18096;48.142;16.290;2023-12-28T05:37:23;4.70;99.90
14095;DHT22;18096;48.142;16.290;2023-12-28T05:39:48;4.70;99.90
14095;DHT22;18096;48.142;16.290;2023-12-28T05:42:14;4.70;99.90
14095;DHT22;18096;48.142;16.290;2023-12-28T05:44:39;4.70;99.90
14095;DHT22;18096;48.142;16.290;2023-12-28T05:47:05;4.70;99.90
14095;DHT22;18096;48.142;16.290;2023-12-28T05:49:31;4.70;99.90
14095;DHT22;18096;48.142;16.290;2023-12-28T05:51:57;4.70;99.90
14095;DHT22;18096;48.142;16.290;2023-12-28T05:54:22;4.70;99.90
14095;DHT22;18096;48.142;16.290;2023-12-28T05:56:48;4.70;99.90
14095;DHT22;18096;48.142;16.290;2023-12-28T05:59:13;4.70;99.90
14095;DHT22;18096;48.142;16.290;2023-12-28T06:01:43;4.70;99.90
14095;DHT22;18096;48.142;16.290;2023-12-28T06:04:09;4.70;99.90
14095;DHT22;18096;48.142;16.290;2023-12-28T06:06:34;4.80;99.90
14095;DHT22;18096;48.142;16.290;2023-12-28T06:09:01;4.80;99.90
14095;DHT22;18096;48.142;16.290;2023-12-28T06:11:28;4.70;99.90
14095;DHT22;18096;48.142;16.290;2023-12-28T06:13:54;4.70;99.90
14095;DHT22;18096;48.142;16.290;2023-12-28T06:16:20;4.70;99.90
14095;DHT22;18096;48.142;16.290;2023-12-28T06:18:45;4.70;99.90
14095;DHT22;18096;48.142;16.290;2023-12-28T06:21:11;4.70;99.90
14095;DHT22;18096;48.142;16.290;2023-12-28T06:23:36;4.70;99.90
14095;DHT22;18096;48.142;16.290;2023-12-28T06:26:06;4.70;99.90
14095;DHT22;18096;48.142;16.290;2023-12-28T06:28:32;4.70;99.90
14095;DHT22;18096;48.142;16.290;2023-12-28T06:30:58;4.70;99.90
14095;DHT22;18096;48.142;16.290;2023-12-28T06:33:29;4.70;99.90
14095;DHT22;18096;48.142;16.290;2023-12-28T06:35:55;4.60;99.90
14095;DHT22;18096;48.142;16.290;2023-12-28T06:38:23;4.60;99.90
14095;DHT22;18096;48.142;16.290;2023-12-28T06:40:49;4.50;99.90
14095;DHT22;18096;48.142;16.290;2023-12-28T06:43:14;4.50;99.90
14095;DHT22;18096;48.142;16.290;2023-12-28T06:45:41;4.50;99.90
14095;DHT22;18096;48.142;16.290;2023-12-28T06:48:06;4.40;99.90
14095;DHT22;18096;48.142;16.290;2023-12-28T06:50:32;4.40;99.90
14095;DHT22;18096;48.142;16.290;2023-12-28T06:52:57;4.40;99.90
14095;DHT22;18096;48.142;16.290;2023-12-28T06:55:23;4.40;99.90
14095;DHT22;18096;48.142;16.290;2023-12-28T06:57:49;4.30;99.90
14095;DHT22;18096;48.142;16.290;2023-12-28T07:00:14;4.30;99.90
14095;DHT22;18096;48.142;16.290;2023-12-28T07:02:40;4.30;99.90
14095;DHT22;18096;48.142;16.290;2023-12-28T07:05:06;4.30;99.90
14095;DHT22;18096;48.142;16.290;2023-12-28T07:07:31;4.30;99.90
14095;DHT22;18096;48.142;16.290;2023-12-28T07:09:57;4.30;99.90
14095;DHT22;18096;48.142;16.290;2023-12-28T07:12:23;4.30;99.90
14095;DHT22;18096;48.142;16.290;2023-12-28T07:14:49;4.40;99.90
14095;DHT22;18096;48.142;16.290;2023-12-28T07:17:14;4.40;99.90
14095;DHT22;18096;48.142;16.290;2023-12-28T07:19:43;4.40;99.90
14095;DHT22;18096;48.142;16.290;2023-12-28T07:22:08;4.40;99.90
14095;DHT22;18096;48.142;16.290;2023-12-28T07:24:34;4.40;99.90
14095;DHT22;18096;48.142;16.290;2023-12-28T07:27:00;4.40;99.90
14095;DHT22;18096;48.142;16.290;2023-12-28T07:29:25;4.40;99.90
14095;DHT22;18096;48.142;16.290;2023-12-28T07:31:51;4.40;99.90
14095;DHT22;18096;48.142;16.290;2023-12-28T07:34:16;4.50;99.90
14095;DHT22;18096;48.142;16.290;2023-12-28T07:36:42;4.50;99.90
14095;DHT22;18096;48.142;16.290;2023-12-28T07:39:09;4.50;99.90
14095;DHT22;18096;48.142;16.290;2023-12-28T07:41:34;4.50;99.90
14095;DHT22;18096;48.142;16.290;2023-12-28T07:44:00;4.50;99.90
14095;DHT22;18096;48.142;16.290;2023-12-28T07:46:26;4.50;99.90
14095;DHT22;18096;48.142;16.290;2023-12-28T07:48:51;4.50;99.90
14095;DHT22;18096;48.142;16.290;2023-12-28T07:51:17;4.40;99.90
14095;DHT22;18096;48.142;16.290;2023-12-28T07:53:42;4.40;99.90
14095;DHT22;18096;48.142;16.290;2023-12-28T07:56:08;4.40;99.90
14095;DHT22;18096;48.142;16.290;2023-12-28T07:58:34;4.40;99.90
14095;DHT22;18096;48.142;16.290;2023-12-28T08:01:02;4.40;99.90
14095;DHT22;18096;48.142;16.290;2023-12-28T08:03:28;4.40;99.90
14095;DHT22;18096;48.142;16.290;2023-12-28T08:05:54;4.50;99.90
14095;DHT22;18096;48.142;16.290;2023-12-28T08:08:19;4.50;99.90
14095;DHT22;18096;48.142;16.290;2023-12-28T08:10:45;4.60;99.90
14095;DHT22;18096;48.142;16.290;2023-12-28T08:13:11;4.50;99.90
14095;DHT22;18096;48.142;16.290;2023-12-28T08:15:36;4.50;99.90
14095;DHT22;18096;48.142;16.290;2023-12-28T08:18:02;4.50;99.90
14095;DHT22;18096;48.142;16.290;2023-12-28T08:20:28;4.50;99.90
14095;DHT22;18096;48.142;16.290;2023-12-28T08:22:53;4.70;99.90
14095;DHT22;18096;48.142;16.290;2023-12-28T08:25:19;4.60;99.90
14095;DHT22;18096;48.142;16.290;2023-12-28T08:27:45;4.70;99.90
14095;DHT22;18096;48.142;16.290;2023-12-28T08:30:10;4.80;99.90
14095;DHT22;18096;48.142;16.290;2023-12-28T08:32:36;4.80;99.90
14095;DHT22;18096;48.142;16.290;2023-12-28T08:35:02;4.80;99.90
14095;DHT22;18096;48.142;16.290;2023-12-28T08:37:28;4.80;99.90
14095;DHT22;18096;48.142;16.290;2023-12-28T08:39:53;4.90;99.90
14095;DHT22;18096;48.142;16.290;2023-12-28T08:42:20;4.80;99.90
14095;DHT22;18096;48.142;16.290;2023-12-28T08:44:46;4.80;99.90
14095;DHT22;18096;48.142;16.290;2023-12-28T08:47:11;4.80;99.90
14095;DHT22;18096;48.142;16.290;2023-12-28T08:49:37;4.90;99.90
14095;DHT22;18096;48.142;16.290;2023-12-28T08:52:03;4.90;99.90
14095;DHT22;18096;48.142;16.290;2023-12-28T08:54:28;4.90;99.90
14095;DHT22;18096;48.142;16.290;2023-12-28T08:56:54;4.90;99.90
14095;DHT22;18096;48.142;16.290;2023-12-28T08:59:20;4.90;99.90
14095;DHT22;18096;48.142;16.290;2023-12-28T09:01:45;5.00;99.90
14095;DHT22;18096;48.142;16.290;2023-12-28T09:04:11;5.00;99.90
14095;DHT22;18096;48.142;16.290;2023-12-28T09:06:36;5.10;99.90
14095;DHT22;18096;48.142;16.290;2023-12-28T09:09:02;5.10;99.90
14095;DHT22;18096;48.142;16.290;2023-12-28T09:11:29;5.10;99.90
14095;DHT22;18096;48.142;16.290;2023-12-28T09:13:55;5.10;99.90
14095;DHT22;18096;48.142;16.290;2023-12-28T09:16:20;5.10;99.90
14095;DHT22;18096;48.142;16.290;2023-12-28T09:18:46;5.00;99.90
14095;DHT22;18096;48.142;16.290;2023-12-28T09:21:12;5.10;99.90
14095;DHT22;18096;48.142;16.290;2023-12-28T09:23:37;5.10;99.90
14095;DHT22;18096;48.142;16.290;2023-12-28T09:26:04;5.10;99.90
14095;DHT22;18096;48.142;16.290;2023-12-28T09:28:30;5.10;99.90
14095;DHT22;18096;48.142;16.290;2023-12-28T09:30:56;5.10;99.90
14095;DHT22;18096;48.142;16.290;2023-12-28T09:33:22;5.10;99.90
14095;DHT22;18096;48.142;16.290;2023-12-28T09:35:48;5.10;99.90
14095;DHT22;18096;48.142;16.290;2023-12-28T09:38:14;5.20;99.90
14095;DHT22;18096;48.142;16.290;2023-12-28T09:40:42;5.20;99.90
14095;DHT22;18096;48.142;16.290;2023-12-28T09:43:22;5.20;99.90
14095;DHT22;18096;48.142;16.290;2023-12-28T09:45:49;5.10;99.90
14095;DHT22;18096;48.142;16.290;2023-12-28T09:48:19;5.10;99.90
14095;DHT22;18096;48.142;16.290;2023-12-28T09:50:48;5.10;99.90
14095;DHT22;18096;48.142;16.290;2023-12-28T09:53:14;5.20;99.90
14095;DHT22;18096;48.142;16.290;2023-12-28T09:55:40;5.20;99.90
14095;DHT22;18096;48.142;16.290;2023-12-28T09:58:06;5.20;99.90
14095;DHT22;18096;48.142;16.290;2023-12-28T10:00:32;5.20;99.90
14095;DHT22;18096;48.142;16.290;2023-12-28T10:02:58;5.20;99.90
14095;DHT22;18096;48.142;16.290;2023-12-28T10:05:23;5.30;99.90
14095;DHT22;18096;48.142;16.290;2023-12-28T10:07:50;5.30;99.90
14095;DHT22;18096;48.142;16.290;2023-12-28T10:10:16;5.30;99.90
14095;DHT22;18096;48.142;16.290;2023-12-28T10:12:42;5.40;99.90
14095;DHT22;18096;48.142;16.290;2023-12-28T10:15:09;5.40;99.90
14095;DHT22;18096;48.142;16.290;2023-12-28T10:17:35;5.40;99.90
14095;DHT22;18096;48.142;16.290;2023-12-28T10:20:03;5.30;99.90
14095;DHT22;18096;48.142;16.290;2023-12-28T10:22:31;5.30;99.90
14095;DHT22;18096;48.142;16.290;2023-12-28T10:24:58;5.30;99.90
14095;DHT22;18096;48.142;16.290;2023-12-28T10:27:25;5.30;99.90
14095;DHT22;18096;48.142;16.290;2023-12-28T10:29:53;5.30;99.90
14095;DHT22;18096;48.142;16.290;2023-12-28T10:32:20;5.30;99.90
14095;DHT22;18096;48.142;16.290;2023-12-28T10:34:46;5.30;99.90
14095;DHT22;18096;48.142;16.290;2023-12-28T10:37:11;5.30;99.90
14095;DHT22;18096;48.142;16.290;2023-12-28T10:39:39;5.30;99.90
14095;DHT22;18096;48.142;16.290;2023-12-28T10:42:11;5.30;99.90
14095;DHT22;18096;48.142;16.290;2023-12-28T10:44:43;5.30;99.90
14095;DHT22;18096;48.142;16.290;2023-12-28T10:47:16;5.30;99.90
14095;DHT22;18096;48.142;16.290;2023-12-28T10:49:44;5.40;99.90
14095;DHT22;18096;48.142;16.290;2023-12-28T10:52:13;5.30;99.90
14095;DHT22;18096;48.142;16.290;2023-12-28T10:54:44;5.30;99.90
14095;DHT22;18096;48.142;16.290;2023-12-28T10:57:28;5.30;99.90
14095;DHT22;18096;48.142;16.290;2023-12-28T11:00:13;5.30;99.90
14095;DHT22;18096;48.142;16.290;2023-12-28T11:02:45;5.30;99.90
14095;DHT22;18096;48.142;16.290;2023-12-28T11:05:13;5.20;99.90
14095;DHT22;18096;48.142;16.290;2023-12-28T11:07:40;5.20;99.90
14095;DHT22;18096;48.142;16.290;2023-12-28T11:10:07;5.20;99.90
14095;DHT22;18096;48.142;16.290;2023-12-28T11:12:35;5.30;99.90
14095;DHT22;18096;48.142;16.290;2023-12-28T11:15:03;5.30;99.90
14095;DHT22;18096;48.142;16.290;2023-12-28T11:17:31;5.30;99.90
14095;DHT22;18096;48.142;16.290;2023-12-28T11:19:57;5.30;99.90
14095;DHT22;18096;48.142;16.290;2023-12-28T11:22:23;5.30;99.90
14095;DHT22;18096;48.142;16.290;2023-12-28T11:24:53;5.30;99.90
14095;DHT22;18096;48.142;16.290;2023-12-28T11:27:19;5.30;99.90
14095;DHT22;18096;48.142;16.290;2023-12-28T11:29:48;5.30;99.90
14095;DHT22;18096;48.142;16.290;2023-12-28T11:32:13;5.30;99.90
14095;DHT22;18096;48.142;16.290;2023-12-28T11:34:39;5.30;99.90
14095;DHT22;18096;48.142;16.290;2023-12-28T11:37:24;5.30;99.90
14095;DHT22;18096;48.142;16.290;2023-12-28T11:39:51;5.40;99.90
14095;DHT22;18096;48.142;16.290;2023-12-28T11:42:23;5.30;99.90
14095;DHT22;18096;48.142;16.290;2023-12-28T11:44:54;5.30;99.90
14095;DHT22;18096;48.142;16.290;2023-12-28T11:47:26;5.20;99.90
14095;DHT22;18096;48.142;16.290;2023-12-28T11:49:54;5.20;99.90
14095;DHT22;18096;48.142;16.290;2023-12-28T11:52:28;5.20;99.90
14095;DHT22;18096;48.142;16.290;2023-12-28T11:54:54;5.20;99.90
14095;DHT22;18096;48.142;16.290;2023-12-28T11:57:20;5.20;99.90
14095;DHT22;18096;48.142;16.290;2023-12-28T11:59:52;5.20;99.90
14095;DHT22;18096;48.142;16.290;2023-12-28T12:02:18;5.30;99.90
14095;DHT22;18096;48.142;16.290;2023-12-28T12:04:44;5.40;99.90
14095;DHT22;18096;48.142;16.290;2023-12-28T12:07:10;5.40;99.90
14095;DHT22;18096;48.142;16.290;2023-12-28T12:09:35;5.40;99.90
14095;DHT22;18096;48.142;16.290;2023-12-28T12:12:02;5.40;99.90
14095;DHT22;18096;48.142;16.290;2023-12-28T12:14:28;5.40;99.90
14095;DHT22;18096;48.142;16.290;2023-12-28T12:16:55;5.40;99.90
14095;DHT22;18096;48.142;16.290;2023-12-28T12:19:24;5.40;99.90
14095;DHT22;18096;48.142;16.290;2023-12-28T12:21:54;5.40;99.90
14095;DHT22;18096;48.142;16.290;2023-12-28T12:24:20;5.50;99.90
14095;DHT22;18096;48.142;16.290;2023-12-28T12:26:47;5.30;99.90
14095;DHT22;18096;48.142;16.290;2023-12-28T12:29:13;5.20;99.90
14095;DHT22;18096;48.142;16.290;2023-12-28T12:31:40;5.10;99.90
14095;DHT22;18096;48.142;16.290;2023-12-28T12:34:07;5.10;99.90
14095;DHT22;18096;48.142;16.290;2023-12-28T12:36:34;5.00;99.90
14095;DHT22;18096;48.142;16.290;2023-12-28T12:38:59;5.00;99.90
14095;DHT22;18096;48.142;16.290;2023-12-28T12:41:26;5.10;99.90
14095;DHT22;18096;48.142;16.290;2023-12-28T12:43:52;5.10;99.90
14095;DHT22;18096;48.142;16.290;2023-12-28T12:46:18;5.10;99.90
14095;DHT22;18096;48.142;16.290;2023-12-28T12:48:54;5.10;99.90
14095;DHT22;18096;48.142;16.290;2023-12-28T12:51:20;5.10;99.90
14095;DHT22;18096;48.142;16.290;2023-12-28T12:53:46;5.10;99.90
14095;DHT22;18096;48.142;16.290;2023-12-28T12:56:12;5.20;99.90
14095;DHT22;18096;48.142;16.290;2023-12-28T12:58:38;5.20;99.90
14095;DHT22;18096;48.142;16.290;2023-12-28T13:01:03;5.20;99.90
14095;DHT22;18096;48.142;16.290;2023-12-28T13:03:29;5.20;99.90
14095;DHT22;18096;48.142;16.290;2023-12-28T13:05:55;5.10;99.90
14095;DHT22;18096;48.142;16.290;2023-12-28T13:08:22;5.20;99.90
14095;DHT22;18096;48.142;16.290;2023-12-28T13:10:48;5.10;99.90
14095;DHT22;18096;48.142;16.290;2023-12-28T13:13:15;5.20;99.90
14095;DHT22;18096;48.142;16.290;2023-12-28T13:15:41;5.10;99.90
14095;DHT22;18096;48.142;16.290;2023-12-28T13:18:06;5.10;99.90
14095;DHT22;18096;48.142;16.290;2023-12-28T13:20:32;5.10;99.90
14095;DHT22;18096;48.142;16.290;2023-12-28T13:22:58;5.10;99.90
14095;DHT22;18096;48.142;16.290;2023-12-28T13:25:23;5.10;99.90
14095;DHT22;18096;48.142;16.290;2023-12-28T13:27:49;5.10;99.90
14095;DHT22;18096;48.142;16.290;2023-12-28T13:30:15;5.10;99.90
14095;DHT22;18096;48.142;16.290;2023-12-28T13:32:40;5.10;99.90
14095;DHT22;18096;48.142;16.290;2023-12-28T13:35:06;5.00;99.90
14095;DHT22;18096;48.142;16.290;2023-12-28T13:37:32;5.00;99.90
14095;DHT22;18096;48.142;16.290;2023-12-28T13:39:57;5.00;99.90
14095;DHT22;18096;48.142;16.290;2023-12-28T13:42:23;5.00;99.90
14095;DHT22;18096;48.142;16.290;2023-12-28T13:44:49;5.10;99.90
14095;DHT22;18096;48.142;16.290;2023-12-28T13:47:15;5.10;99.90
14095;DHT22;18096;48.142;16.290;2023-12-28T13:49:41;5.10;99.90
14095;DHT22;18096;48.142;16.290;2023-12-28T13:52:06;5.10;99.90
14095;DHT22;18096;48.142;16.290;2023-12-28T13:54:32;5.10;99.90
14095;DHT22;18096;48.142;16.290;2023-12-28T13:56:57;5.10;99.90
14095;DHT22;18096;48.142;16.290;2023-12-28T13:59:24;5.10;99.90
14095;DHT22;18096;48.142;16.290;2023-12-28T14:01:50;5.10;99.90
14095;DHT22;18096;48.142;16.290;2023-12-28T14:04:16;5.10;99.90
14095;DHT22;18096;48.142;16.290;2023-12-28T14:06:41;5.20;99.90
14095;DHT22;18096;48.142;16.290;2023-12-28T14:09:07;5.20;99.90
14095;DHT22;18096;48.142;16.290;2023-12-28T14:11:33;5.20;99.90
14095;DHT22;18096;48.142;16.290;2023-12-28T14:13:59;5.20;99.90
14095;DHT22;18096;48.142;16.290;2023-12-28T14:16:25;5.20;99.90
14095;DHT22;18096;48.142;16.290;2023-12-28T14:18:50;5.20;99.90
14095;DHT22;18096;48.142;16.290;2023-12-28T14:21:18;5.20;99.90
14095;DHT22;18096;48.142;16.290;2023-12-28T14:23:44;5.20;99.90
14095;DHT22;18096;48.142;16.290;2023-12-28T14:26:14;5.20;99.90
14095;DHT22;18096;48.142;16.290;2023-12-28T14:28:43;5.20;99.90
14095;DHT22;18096;48.142;16.290;2023-12-28T14:31:10;5.20;99.90
14095;DHT22;18096;48.142;16.290;2023-12-28T14:33:36;5.20;99.90
14095;DHT22;18096;48.142;16.290;2023-12-28T14:36:02;5.20;99.90
14095;DHT22;18096;48.142;16.290;2023-12-28T14:38:29;5.20;99.90
14095;DHT22;18096;48.142;16.290;2023-12-28T14:40:55;5.20;99.90
14095;DHT22;18096;48.142;16.290;2023-12-28T14:43:22;5.10;99.90
14095;DHT22;18096;48.142;16.290;2023-12-28T14:45:48;5.10;99.90
14095;DHT22;18096;48.142;16.290;2023-12-28T14:48:13;5.10;99.90
14095;DHT22;18096;48.142;16.290;2023-12-28T14:50:39;5.10;99.90
14095;DHT22;18096;48.142;16.290;2023-12-28T14:53:05;5.10;99.90
14095;DHT22;18096;48.142;16.290;2023-12-28T14:55:31;5.00;99.90
14095;DHT22;18096;48.142;16.290;2023-12-28T14:57:56;5.00;99.90
14095;DHT22;18096;48.142;16.290;2023-12-28T15:00:22;5.00;99.90
14095;DHT22;18096;48.142;16.290;2023-12-28T15:02:48;5.00;99.90
14095;DHT22;18096;48.142;16.290;2023-12-28T15:05:13;4.90;99.90
14095;DHT22;18096;48.142;16.290;2023-12-28T15:07:39;4.90;99.90
14095;DHT22;18096;48.142;16.290;2023-12-28T15:10:05;4.90;99.90
14095;DHT22;18096;48.142;16.290;2023-12-28T15:12:33;4.90;99.90
14095;DHT22;18096;48.142;16.290;2023-12-28T15:14:59;4.90;99.90
14095;DHT22;18096;48.142;16.290;2023-12-28T15:17:25;4.80;99.90
14095;DHT22;18096;48.142;16.290;2023-12-28T15:19:51;4.80;99.90
14095;DHT22;18096;48.142;16.290;2023-12-28T15:22:17;4.80;99.90
14095;DHT22;18096;48.142;16.290;2023-12-28T15:24:43;4.70;99.90